Flight Track Log - Related Links

Times and Time Zones

All times are in EST time to prevent confusion due to time zone crossing. See the EJA929 flight status page for this flight to view local times or setup timezone preferences in your user account.

Time Position Orientation Groundspeed Altitude Reporting Facility
EST Latitude Longitude Course Direction KTS MPH feet Rate Location/Type
Sun 09:34:03 PM 40.1000 -75.0000 49° Northeast 146 168 1,000  Level Philadelphia TRACON
Sun 09:34:57 PM 40.1333 -74.9500 49° Northeast 193 222 2,100 1,632 Climbing Philadelphia TRACON
Sun 09:35:57 PM 40.1833 -74.9833 333° Northwest 293 337 4,100 2,333 Climbing Philadelphia TRACON
Sun 09:37:03 PM 40.1833 -75.0833 270° West 233 268 7,000 1,952 Climbing Philadelphia TRACON
Sun 09:38:03 PM 40.1500 -75.1667 242° Southwest 247 284 8,200 1,667 Climbing Philadelphia TRACON
Sun 09:38:51 PM 40.1333 -75.2333 252° West 246 283 10,000 560 Climbing Philadelphia TRACON
Sun 09:41:16 PM 40.0183 -75.4600 237° Southwest 342 394 10,000 176 Level New York Center
Sun 09:42:16 PM 39.9719 -75.5761 242° Southwest 336 387 10,600 1,150 Climbing New York Center
Sun 09:43:16 PM 39.9614 -75.6783 262° West 318 366 12,300 1,700 Climbing New York Center
Sun 09:44:16 PM 39.9481 -75.7992 262° West 313 360 14,000 1,400 Climbing New York Center
Sun 09:45:16 PM 39.9394 -75.9014 264° West 313 360 15,100 1,400 Climbing New York Center
Sun 09:46:16 PM 39.9261 -76.0117 261° West 313 360 16,800 1,650 Climbing New York Center
Sun 09:47:16 PM 39.9122 -76.1378 262° West 313 360 18,400 1,400 Climbing New York Center
Sun 09:48:16 PM 39.9092 -76.2483 268° West 321 369 19,600 1,250 Climbing New York Center
Sun 09:49:16 PM 39.9142 -76.3653 273° West 327 376 20,900 1,350 Climbing New York Center
Sun 09:50:16 PM 39.9186 -76.4875 273° West 333 383 22,300 1,400 Climbing New York Center
Sun 09:51:16 PM 39.9250 -76.6153 274° West 344 396 23,700 1,500 Climbing New York Center
Sun 09:52:16 PM 39.9292 -76.7400 273° West 350 403 25,300 1,650 Climbing New York Center
Sun 09:53:16 PM 39.9350 -76.8706 273° West 355 409 27,000 1,450 Climbing New York Center
Sun 09:54:16 PM 39.9406 -77.0011 273° West 360 414 28,200 1,500 Climbing New York Center
Sun 09:55:16 PM 39.9461 -77.1317 273° West 365 420 30,000 2,696 Climbing New York Center
Sun 09:56:54 PM 39.9528 -77.3531 272° West 341 392 35,300 2,755 Climbing Cleveland Center
Sun 09:57:55 PM 39.9561 -77.4708 272° West 330 380 37,300 2,508 Climbing Cleveland Center
Sun 09:58:56 PM 39.9600 -77.5806 273° West 313 360 40,400 2,164 Climbing Cleveland Center
Sun 09:59:57 PM 39.9617 -77.6831 271° West 293 337 41,700 1,033 Climbing Cleveland Center
Sun 10:00:58 PM 39.9658 -77.7831 273° West 282 325 42,500 639 Climbing Cleveland Center
Sun 10:01:59 PM 39.9694 -77.8889 273° West 287 330 43,000 246 Climbing Cleveland Center
Sun 10:03:00 PM 39.9731 -78.0019 272° West 301 346 43,000  Level Cleveland Center
Sun 10:04:01 PM 39.9758 -78.1183 272° West 313 360 43,000  Level Cleveland Center
Sun 10:05:02 PM 39.9794 -78.2411 272° West 328 377 43,000  Level Cleveland Center
Sun 10:06:03 PM 39.9833 -78.3725 272° West 337 388 43,000  Level Cleveland Center
Sun 10:07:04 PM 39.9867 -78.4981 272° West 343 395 43,000  Level Cleveland Center
Sun 10:08:05 PM 39.9897 -78.6231 272° West 344 396 43,000  Level Cleveland Center
Sun 10:09:06 PM 39.9911 -78.7500 271° West 349 402 43,000  Level Cleveland Center
Sun 10:10:07 PM 39.9944 -78.8781 272° West 352 405 43,000  Level Cleveland Center
Sun 10:11:08 PM 39.9994 -79.0278 273° West 379 436 43,000  Level Cleveland Center
Sun 10:12:09 PM 40.0003 -79.1558 271° West 364 419 43,000  Level Cleveland Center
Sun 10:13:10 PM 40.0031 -79.2853 272° West 358 412 43,000  Level Cleveland Center
Sun 10:14:12 PM 40.0058 -79.4161 272° West 360 414 43,000  Level Cleveland Center
Sun 10:15:13 PM 40.0075 -79.5450 271° West 357 411 43,000  Level Cleveland Center
Sun 10:16:14 PM 40.0094 -79.6758 271° West 359 413 43,000  Level Cleveland Center
Sun 10:17:15 PM 40.0100 -79.8039 270° West 355 409 43,000  Level Cleveland Center
Sun 10:18:16 PM 40.0106 -79.9364 270° West 363 418 43,000  Level Cleveland Center
Sun 10:19:17 PM 40.0136 -80.0703 272° West 368 423 43,000  Level Cleveland Center
Sun 10:20:19 PM 40.0144 -80.2019 271° West 364 419 43,000  Level Cleveland Center
Sun 10:21:20 PM 40.0156 -80.3336 271° West 362 417 43,000  Level Cleveland Center
Sun 10:22:21 PM 40.0161 -80.4922 270° West 362 417 43,000  Level Cleveland Center
Sun 10:23:22 PM 40.0169 -80.6228 271° West 360 414 43,000  Level Cleveland Center
Sun 10:24:23 PM 40.0183 -80.7536 271° West 361 415 43,000  Level Cleveland Center
Sun 10:25:21 PM 40.0156 -80.8836 268° West 362 417 43,000  Level Indianapolis Center
Sun 10:26:22 PM 40.0136 -81.0167 269° West 363 418 43,000  Level Indianapolis Center
Sun 10:27:23 PM 40.0122 -81.1492 269° West 361 415 43,000  Level Indianapolis Center
Sun 10:28:24 PM 40.0106 -81.2828 269° West 364 419 43,000  Level Indianapolis Center
Sun 10:29:25 PM 40.0078 -81.4153 268° West 363 418 43,000  Level Indianapolis Center
Sun 10:30:26 PM 40.0044 -81.5472 268° West 361 415 43,000  Level Indianapolis Center
Sun 10:31:27 PM 40.0025 -81.6775 269° West 359 413 43,000  Level Indianapolis Center
Sun 10:32:28 PM 39.9992 -81.7911 268° West 362 417 43,000  Level Indianapolis Center
Sun 10:33:29 PM 39.9967 -81.9486 269° West 362 417 43,000  Level Indianapolis Center
Sun 10:34:30 PM 39.9928 -82.0808 268° West 365 420 43,000  Level Indianapolis Center
Sun 10:35:31 PM 39.9903 -82.2142 269° West 368 423 43,000  Level Indianapolis Center
Sun 10:36:32 PM 39.9864 -82.3481 268° West 370 426 43,000  Level Indianapolis Center
Sun 10:37:33 PM 39.9828 -82.4806 268° West 368 423 43,000  Level Indianapolis Center
Sun 10:38:34 PM 39.9794 -82.6144 268° West 371 427 43,000  Level Indianapolis Center
Sun 10:39:35 PM 39.9753 -82.7478 268° West 370 426 43,000  Level Indianapolis Center
Sun 10:40:35 PM 39.9711 -82.8808 268° West 370 426 43,000  Level Indianapolis Center
Sun 10:41:36 PM 39.9658 -83.0150 267° West 371 427 43,000  Level Indianapolis Center
Sun 10:42:37 PM 39.9633 -83.1472 269° West 369 425 43,000  Level Indianapolis Center
Sun 10:43:38 PM 39.9600 -83.2800 268° West 369 425 43,000  Level Indianapolis Center
Sun 10:44:39 PM 39.9550 -83.4364 268° West 367 422 43,000  Level Indianapolis Center
Sun 10:45:40 PM 39.9503 -83.5664 267° West 370 426 43,000  Level Indianapolis Center
Sun 10:46:41 PM 39.9447 -83.6961 267° West 366 421 43,000  Level Indianapolis Center
Sun 10:47:42 PM 39.9400 -83.8275 267° West 366 421 43,000  Level Indianapolis Center
Sun 10:48:43 PM 39.9347 -83.9600 267° West 368 423 43,000  Level Indianapolis Center
Sun 10:49:43 PM 39.9294 -84.0928 267° West 369 425 43,000  Level Indianapolis Center
Sun 10:50:44 PM 39.9236 -84.2256 267° West 368 423 43,000  Level Indianapolis Center
Sun 10:51:45 PM 39.9183 -84.3583 267° West 370 426 43,000  Level Indianapolis Center
Sun 10:52:46 PM 39.9119 -84.4911 266° West 370 426 43,000  Level Indianapolis Center
Sun 10:53:47 PM 39.9053 -84.6506 267° West 369 425 43,000  Level Indianapolis Center
Sun 10:54:48 PM 39.9000 -84.7853 267° West 372 428 43,000  Level Indianapolis Center
Sun 10:55:48 PM 39.8942 -84.9042 266° West 372 428 43,000  Level Indianapolis Center
Sun 10:56:49 PM 39.8853 -85.0364 265° West 370 426 43,000  Level Indianapolis Center
Sun 10:57:50 PM 39.8706 -85.1675 262° West 368 423 43,000  Level Indianapolis Center
Sun 10:58:51 PM 39.8553 -85.2975 261° West 366 421 43,000  Level Indianapolis Center
Sun 10:59:52 PM 39.8378 -85.4536 262° West 364 419 43,000  Level Indianapolis Center
Sun 11:00:52 PM 39.8228 -85.5839 262° West 365 420 43,000  Level Indianapolis Center
Sun 11:01:53 PM 39.8064 -85.7142 261° West 367 422 43,000  Level Indianapolis Center
Sun 11:02:54 PM 39.7914 -85.8444 262° West 366 421 43,000  Level Indianapolis Center
Sun 11:03:55 PM 39.7756 -85.9761 261° West 370 426 43,000  Level Indianapolis Center
Sun 11:04:56 PM 39.7597 -86.1067 261° West 368 423 43,000  Level Indianapolis Center
Sun 11:05:56 PM 39.7403 -86.2492 260° West 368 423 43,000  Level Indianapolis Center
Sun 11:06:57 PM 39.7244 -86.3808 261° West 368 423 43,000  Level Indianapolis Center
Sun 11:07:58 PM 39.7097 -86.5111 262° West 368 423 43,000  Level Indianapolis Center
Sun 11:08:59 PM 39.6922 -86.6411 260° West 368 423 43,000  Level Indianapolis Center
Sun 11:09:59 PM 39.6750 -86.7733 260° West 371 427 43,000  Level Indianapolis Center
Sun 11:11:00 PM 39.6583 -86.9047 261° West 372 428 43,000  Level Indianapolis Center
Sun 11:12:01 PM 39.6406 -87.0361 260° West 372 428 43,000  Level Indianapolis Center
Sun 11:13:02 PM 39.6231 -87.1678 260° West 372 428 43,000  Level Indianapolis Center
Sun 11:14:03 PM 39.6061 -87.3008 261° West 376 433 43,000  Level Indianapolis Center
Sun 11:15:03 PM 39.5886 -87.4328 260° West 374 430 43,000  Level Indianapolis Center
Sun 11:16:04 PM 39.5714 -87.5647 260° West 373 429 43,000  Level Indianapolis Center
Sun 11:17:05 PM 39.5528 -87.6956 260° West 372 428 43,000  Level Indianapolis Center
Sun 11:18:06 PM 39.5342 -87.8286 260° West 375 432 43,000  Level Indianapolis Center
Sun 11:19:07 PM 39.5164 -87.9589 260° West 371 427 43,000  Level Indianapolis Center
Sun 11:20:07 PM 39.4944 -88.1156 260° West 370 426 43,000  Level Indianapolis Center
Sun 11:21:06 PM 39.4769 -88.2361 259° West 371 427 43,000  Level Kansas City Center
Sun 11:22:09 PM 39.4589 -88.3675 260° West 370 426 43,000  Level Kansas City Center
Sun 11:23:10 PM 39.4408 -88.4981 260° West 369 425 43,000  Level Kansas City Center
Sun 11:24:09 PM 39.4231 -88.6231 260° West 378 435 43,000  Level Kansas City Center
Sun 11:25:12 PM 39.4011 -88.7711 259° West 376 433 43,000  Level Kansas City Center
Sun 11:26:12 PM 39.3792 -88.9017 258° West 375 432 43,000  Level Kansas City Center
Sun 11:27:12 PM 39.3631 -89.0364 261° West 379 436 43,000  Level Kansas City Center
Sun 11:28:11 PM 39.3431 -89.1675 259° West 377 434 43,000  Level Kansas City Center
Sun 11:29:12 PM 39.3228 -89.3000 259° West 377 434 43,000  Level Kansas City Center
Sun 11:30:15 PM 39.3028 -89.4319 259° West 377 434 43,000  Level Kansas City Center
Sun 11:31:16 PM 39.2825 -89.5622 259° West 373 429 43,000  Level Kansas City Center
Sun 11:32:16 PM 39.2625 -89.6922 259° West 373 429 43,000  Level Kansas City Center
Sun 11:33:15 PM 39.2419 -89.8239 259° West 374 430 43,000  Level Kansas City Center
Sun 11:34:18 PM 39.2181 -89.9803 259° West 373 429 43,000  Level Kansas City Center
Sun 11:35:18 PM 39.1975 -90.1106 259° West 373 429 43,000  Level Kansas City Center
Sun 11:36:19 PM 39.1758 -90.2406 258° West 373 429 43,000  Level Kansas City Center
Sun 11:37:19 PM 39.1553 -90.3703 258° West 373 429 43,000  Level Kansas City Center
Sun 11:38:20 PM 39.1344 -90.4997 258° West 372 428 43,000  Level Kansas City Center
Sun 11:39:19 PM 39.1131 -90.6289 258° West 373 429 43,000  Level Kansas City Center
Sun 11:40:19 PM 39.0931 -90.7575 259° West 370 426 43,000  Level Kansas City Center
Sun 11:41:22 PM 39.0717 -90.8872 258° West 372 428 43,000  Level Kansas City Center
Sun 11:42:21 PM 39.0494 -91.0175 258° West 375 432 43,000  Level Kansas City Center
Sun 11:43:23 PM 39.0281 -91.1486 258° West 376 433 43,000  Level Kansas City Center
Sun 11:44:22 PM 39.0053 -91.2781 257° West 375 432 43,000  Level Kansas City Center
Sun 11:45:24 PM 38.9833 -91.4094 258° West 376 433 43,000  Level Kansas City Center
Sun 11:46:25 PM 38.9608 -91.5400 258° West 376 433 43,000  Level Kansas City Center
Sun 11:47:26 PM 38.9383 -91.6697 257° West 374 430 43,000  Level Kansas City Center
Sun 11:48:25 PM 38.9111 -91.8225 257° West 374 430 43,000  Level Kansas City Center
Sun 11:49:27 PM 38.8889 -91.9533 258° West 374 430 43,000  Level Kansas City Center
Sun 11:50:28 PM 38.8653 -92.0842 257° West 375 432 43,000  Level Kansas City Center
Sun 11:51:26 PM 38.8422 -92.2161 257° West 377 434 43,000  Level Kansas City Center
Sun 11:52:29 PM 38.8192 -92.3433 257° West 373 429 43,000  Level Kansas City Center
Sun 11:53:29 PM 38.7942 -92.4742 256° West 374 430 43,000  Level Kansas City Center
Sun 11:54:30 PM 38.7697 -92.6075 257° West 379 436 43,000  Level Kansas City Center
Sun 11:55:30 PM 38.7461 -92.7406 257° West 383 441 43,000  Level Kansas City Center
Sun 11:56:31 PM 38.7211 -92.8739 257° West 385 443 43,000  Level Kansas City Center
Sun 11:57:32 PM 38.6967 -93.0078 257° West 385 443 43,000  Level Kansas City Center
Sun 11:58:32 PM 38.6722 -93.1411 257° West 385 443 43,000  Level Kansas City Center
Sun 11:59:30 PM 38.6469 -93.2761 257° West 388 447 43,000  Level Kansas City Center
Mon 12:00:33 AM 38.6211 -93.4119 256° West 391 450 43,000  Level Kansas City Center
Mon 12:01:34 AM 38.5953 -93.5472 256° West 392 451 43,000  Level Kansas City Center
Mon 12:02:32 AM 38.5694 -93.6853 257° West 396 456 43,000  Level Kansas City Center
Mon 12:03:35 AM 38.5400 -93.8258 255° West 399 459 43,000  Level Kansas City Center
Mon 12:04:36 AM 38.5103 -93.9803 256° West 402 463 43,000  Level Kansas City Center
Mon 12:05:36 AM 38.4844 -94.1122 256° West 399 459 43,000  Level Kansas City Center
Mon 12:06:34 AM 38.4594 -94.2425 256° West 396 456 43,000  Level Kansas City Center
Mon 12:07:37 AM 38.4283 -94.3961 256° West 398 458 43,000  Level Kansas City Center
Mon 12:08:38 AM 38.4022 -94.5286 256° West 401 461 43,000  Level Kansas City Center
Mon 12:09:37 AM 38.3758 -94.6572 255° West 395 455 43,000  Level Kansas City Center
Mon 12:10:39 AM 38.3494 -94.7906 256° West 397 457 43,000  Level Kansas City Center
Mon 12:11:38 AM 38.3183 -94.9422 255° West 399 459 43,000 -101 Level Kansas City Center
Mon 12:12:38 AM 38.2928 -95.0725 256° West 397 457 42,800 -800 Descending Kansas City Center
Mon 12:13:38 AM 38.2664 -95.1981 255° West 392 451 41,400 -2,000 Descending Kansas City Center
Mon 12:14:41 AM 38.2364 -95.3444 255° West 387 445 38,700 -2,244 Descending Kansas City Center
Mon 12:15:41 AM 38.2119 -95.4658 256° West 378 435 36,800 -1,934 Descending Kansas City Center
Mon 12:16:42 AM 38.1872 -95.5825 255° West 364 419 34,800 -1,934 Descending Kansas City Center
Mon 12:17:42 AM 38.1636 -95.6964 255° West 349 402 32,900 -2,083 Descending Kansas City Center
Mon 12:18:43 AM 38.1336 -95.8350 255° West 361 415 30,600 -2,118 Descending Kansas City Center
Mon 12:19:41 AM 38.1075 -95.9569 255° West 373 429 28,700 -1,932 Descending Kansas City Center
Mon 12:20:41 AM 38.0806 -96.0808 255° West 380 437 26,800 -1,884 Descending Kansas City Center
Mon 12:21:42 AM 38.0567 -96.1953 255° West 361 415 24,900 -1,887 Descending Kansas City Center
Mon 12:22:45 AM 38.0297 -96.3167 254° West 358 412 22,900 -1,967 Descending Kansas City Center
Mon 12:23:44 AM 38.0028 -96.4381 254° West 358 412 20,900 -1,983 Descending Kansas City Center
Mon 12:24:46 AM 37.9767 -96.5572 254° West 353 406 18,900 -2,270 Descending Kansas City Center
Mon 12:24:58 AM 37.9653 -96.6044 253° West 350 403 18,100 -2,270 Descending Kansas City Center
Mon 12:25:23 AM 37.9550 -96.6489 254° West 347 399 17,500 -1,277 Descending Kansas City Center
Mon 12:25:45 AM 37.9508 -96.6739 258° West 346 398 17,100 -2,034 Descending Kansas City Center
Mon 12:26:22 AM 37.9297 -96.7697 254° West 328 377 15,500 -2,034 Descending Kansas City Center
Mon 12:26:44 AM 37.9267 -96.7842 255° West 329 379 15,100 -2,000 Descending Kansas City Center
Mon 12:27:22 AM 37.9047 -96.8747 253° West 313 360 13,500 -2,226 Descending Kansas City Center
Mon 12:27:46 AM 37.8981 -96.9142 258° West 313 360 12,800 -1,672 Descending Kansas City Center
Mon 12:28:23 AM 37.8831 -96.9711 252° West 275 316 11,800 -1,700 Descending Kansas City Center
Mon 12:28:46 AM 37.8775 -97.0014 257° West 270 311 11,100 -1,821 Descending Kansas City Center
Mon 12:29:19 AM 37.8658 -97.0508 253° West 244 281 10,100 -1,839 Descending Kansas City Center
Mon 12:29:48 AM 37.8581 -97.0853 254° West 252 290 9,200 -1,932 Descending Kansas City Center
Mon 12:30:18 AM 37.8469 -97.1333 254° West 246 283 8,200 -1,100 Descending Kansas City Center
Mon 12:30:48 AM 37.8394 -97.1700 255° West 251 289 8,100 -98 Descending Kansas City Center
Mon 12:31:19 AM 37.8239 -97.2192 248° West 259 298 8,100 -98 Level Kansas City Center
Mon 12:31:49 AM 37.7917 -97.2331 199° South 288 331 8,000  Descending Kansas City Center
Mon 12:32:21 AM 37.7519 -97.2569 205° Southwest 285 328 8,100  Climbing Kansas City Center
Mon 12:32:49 AM 37.7186 -97.2694 197° South 283 326 8,000  Descending Kansas City Center
Mon 12:33:19 AM 37.6778 -97.2925 204° Southwest 283 326 8,100 -393 Climbing Kansas City Center
Mon 12:33:50 AM 37.6444 -97.3033 194° South 282 325 7,600 -1,418 Descending Kansas City Center
Mon 12:34:14 AM 37.6111 -97.3214 203° Southwest 271 312 6,800 -1,729 Descending Kansas City Center
Mon 12:34:49 AM 37.5747 -97.3367 198° South 271 312 5,900 -1,548 Descending Kansas City Center
Mon 12:35:16 AM 37.5489 -97.3522 206° Southwest 227 261 5,200 -1,574 Descending Kansas City Center
Mon 12:35:50 AM 37.5150 -97.3650 197° South 254 292 4,300 -1,645 Descending Kansas City Center
Mon 12:36:18 AM 37.4908 -97.3797 206° Southwest 213 245 3,500 -1,180 Descending Kansas City Center
Mon 12:36:51 AM 37.4772 -97.4081 239° Southwest 228 262 3,100 -517 Descending Kansas City Center
Mon 12:37:16 AM 37.4756 -97.4400 266° West 173 199 3,000  Descending Kansas City Center
Mon 12:37:49 AM 37.4814 -97.4642 287° West 203 234 3,100 97 Climbing Kansas City Center
Mon 12:38:18 AM 37.5019 -97.4728 342° North 152 175 3,100 -97 Level Kansas City Center
Mon 12:38:51 AM 37.5239 -97.4767 352° North 171 197 3,000  Descending Kansas City Center
Mon 12:39:19 AM 37.5461 -97.4714 11° North 164 189 3,100  Climbing Kansas City Center
Mon 12:39:49 AM 37.5658 -97.4594 26° Northeast 162 186 3,000 -393 Descending Kansas City Center
Mon 12:40:20 AM 37.5844 -97.4550 11° North 142 163 2,700 -689 Descending Kansas City Center
Mon 12:40:50 AM 37.6000 -97.4414 35° Northeast 149 171 2,300 -590 Descending Kansas City Center
Mon 12:41:21 AM 37.6122 -97.4400 North 104 120 2,100 -581 Descending Kansas City Center
Mon 12:41:52 AM 37.6267 -97.4286 32° Northeast 127 146 1,700 -326 Descending Kansas City Center
Mon 12:42:53 AM 37.6547 -97.4156 20° North 123 142 1,600 -98 Descending Kansas City Center

Login

Don't have an account? Register now (free) for customized features, flight alerts, and more!